createdAt,value
2019-03-05T00:00:30.440Z,-2.34
2019-03-05T00:01:30.442Z,-2.35
2019-03-05T00:02:30.444Z,-2.37
2019-03-05T00:03:30.447Z,-2.30
2019-03-05T00:04:30.455Z,-2.40
2019-03-05T00:05:30.456Z,-2.40
2019-03-05T00:06:30.462Z,-2.30
2019-03-05T00:07:30.461Z,-2.30
2019-03-05T00:08:30.469Z,-2.39
2019-03-05T00:09:30.469Z,-2.37
2019-03-05T00:10:30.472Z,-2.37
2019-03-05T00:11:30.476Z,-2.43
2019-03-05T00:12:30.487Z,-2.32
2019-03-05T00:13:30.484Z,-2.29
2019-03-05T00:14:30.492Z,-2.35
2019-03-05T00:15:30.494Z,-2.40
2019-03-05T00:16:30.495Z,-2.34
2019-03-05T00:17:30.498Z,-2.30
2019-03-05T00:18:30.501Z,-2.30
2019-03-05T00:19:30.507Z,-2.23
2019-03-05T00:20:30.512Z,-2.20
2019-03-05T00:21:30.513Z,-2.34
2019-03-05T00:22:30.520Z,-2.24
2019-03-05T00:23:30.523Z,-2.34
2019-03-05T00:24:30.525Z,-2.23
2019-03-05T00:25:30.531Z,-2.27
2019-03-05T00:26:30.532Z,-2.24
2019-03-05T00:27:30.534Z,-2.21
2019-03-05T00:28:30.540Z,-2.23
2019-03-05T00:29:30.543Z,-2.27
2019-03-05T00:30:30.546Z,-2.21
2019-03-05T00:31:30.549Z,-2.27
2019-03-05T00:32:30.558Z,-2.23
2019-03-05T00:33:32.705Z,-2.23
2019-03-05T00:34:30.564Z,-2.18
2019-03-05T00:35:30.564Z,-2.12
2019-03-05T00:36:30.567Z,-2.12
2019-03-05T00:37:30.574Z,-2.12
2019-03-05T00:38:30.579Z,-2.18
2019-03-05T00:39:30.580Z,-2.18
2019-03-05T00:40:30.584Z,-2.18
2019-03-05T00:41:30.592Z,-2.27
2019-03-05T00:42:30.591Z,-2.21
2019-03-05T00:43:30.592Z,-2.23
2019-03-05T00:44:30.598Z,-2.23
2019-03-05T00:45:30.602Z,-2.15
2019-03-05T00:46:30.608Z,-2.18
2019-03-05T00:47:30.611Z,-2.18
2019-03-05T00:48:30.611Z,-2.18
2019-03-05T00:49:30.623Z,-2.12
2019-03-05T00:50:30.624Z,-2.13
2019-03-05T00:51:30.623Z,-2.18
2019-03-05T00:52:30.628Z,-2.03
2019-03-05T00:53:30.636Z,-2.03
2019-03-05T00:54:30.640Z,-2.13
2019-03-05T00:55:30.642Z,-2.09
2019-03-05T00:56:30.649Z,-2.12
2019-03-05T00:57:30.646Z,-2.21
2019-03-05T00:58:30.648Z,-2.16
2019-03-05T00:59:30.656Z,-2.18
2019-03-05T01:00:30.657Z,-2.18
2019-03-05T01:01:30.661Z,-2.15
2019-03-05T01:02:30.676Z,-2.18
2019-03-05T01:03:30.672Z,-2.13
2019-03-05T01:04:30.678Z,-2.16
2019-03-05T01:05:30.676Z,-2.16
2019-03-05T01:06:30.682Z,-2.18
2019-03-05T01:07:30.686Z,-2.15
2019-03-05T01:08:30.687Z,-2.21
2019-03-05T01:09:30.690Z,-2.18
2019-03-05T01:10:30.702Z,-2.16
2019-03-05T01:11:30.707Z,-2.20
2019-03-05T01:12:30.720Z,-2.30
2019-03-05T01:13:30.708Z,-2.20
2019-03-05T01:14:30.713Z,-2.18
2019-03-05T01:15:30.717Z,-2.27
2019-03-05T01:16:30.724Z,-2.27
2019-03-05T01:17:30.731Z,-2.21
2019-03-05T01:18:30.725Z,-2.18
2019-03-05T01:19:30.729Z,-2.18
2019-03-05T01:20:30.733Z,-2.24
2019-03-05T01:21:30.737Z,-2.23
2019-03-05T01:22:30.738Z,-2.18
2019-03-05T01:23:30.750Z,-2.21
2019-03-05T01:24:30.745Z,-2.16
2019-03-05T01:25:30.752Z,-2.27
2019-03-05T01:26:30.754Z,-2.30
2019-03-05T01:27:30.755Z,-2.27
2019-03-05T01:28:30.763Z,-2.34
2019-03-05T01:29:30.763Z,-2.34
2019-03-05T01:30:30.773Z,-2.39
2019-03-05T01:31:30.775Z,-2.37
2019-03-05T01:32:30.783Z,-2.39
2019-03-05T01:33:30.784Z,-2.29
2019-03-05T01:34:30.787Z,-2.43
2019-03-05T01:35:30.788Z,-2.40
2019-03-05T01:36:30.791Z,-2.32
2019-03-05T01:37:30.794Z,-2.37
2019-03-05T01:38:30.804Z,-2.39
2019-03-05T01:39:30.804Z,-2.37
2019-03-05T01:40:30.818Z,-2.37
2019-03-05T01:41:30.810Z,-2.39
2019-03-05T01:42:30.815Z,-2.35
2019-03-05T01:43:30.821Z,-2.35
2019-03-05T01:44:30.833Z,-2.35
2019-03-05T01:45:30.836Z,-2.35
2019-03-05T01:46:30.825Z,-2.32
2019-03-05T01:47:30.833Z,-2.30
2019-03-05T01:48:30.836Z,-2.34
2019-03-05T01:49:30.838Z,-2.35
2019-03-05T01:50:30.841Z,-2.32
2019-03-05T01:51:30.843Z,-2.32
2019-03-05T01:52:30.855Z,-2.35
2019-03-05T01:53:30.851Z,-2.27
2019-03-05T01:54:30.859Z,-2.16
2019-03-05T01:55:30.859Z,-2.24
2019-03-05T01:56:30.865Z,-2.15
2019-03-05T01:57:30.870Z,-2.06
2019-03-05T01:58:30.872Z,-2.08
2019-03-05T01:59:30.874Z,-2.21
2019-03-05T02:00:30.890Z,-2.20
2019-03-05T02:01:30.900Z,-2.26
2019-03-05T02:02:30.886Z,-2.26
2019-03-05T02:03:30.892Z,-2.16
2019-03-05T02:04:30.897Z,-2.23
2019-03-05T02:05:30.901Z,-2.30
2019-03-05T02:06:30.900Z,-2.26
2019-03-05T02:07:30.909Z,-2.26
2019-03-05T02:08:30.913Z,-2.32
2019-03-05T02:09:30.918Z,-2.16
2019-03-05T02:10:30.919Z,-2.10
2019-03-05T02:11:30.924Z,-2.13
2019-03-05T02:12:30.928Z,-2.08
2019-03-05T02:13:30.934Z,-2.13
2019-03-05T02:14:30.936Z,-2.03
2019-03-05T02:15:30.937Z,-2.03
2019-03-05T02:16:30.946Z,-2.12
2019-03-05T02:17:30.950Z,-2.08
2019-03-05T02:18:30.953Z,-2.16
2019-03-05T02:19:30.954Z,-2.20
2019-03-05T02:20:30.959Z,-2.24
2019-03-05T02:21:30.967Z,-2.18
2019-03-05T02:22:30.964Z,-2.18
2019-03-05T02:23:30.968Z,-2.15
2019-03-05T02:24:30.976Z,-2.15
2019-03-05T02:25:30.980Z,-2.21
2019-03-05T02:26:30.981Z,-2.23
2019-03-05T02:27:30.993Z,-2.16
2019-03-05T02:28:30.993Z,-2.24
2019-03-05T02:29:30.997Z,-2.34
2019-03-05T02:30:31.003Z,-2.27
2019-03-05T02:31:31.002Z,-2.34
2019-03-05T02:32:31.007Z,-2.34
2019-03-05T02:33:31.014Z,-2.34
2019-03-05T02:34:31.014Z,-2.37
2019-03-05T02:35:31.022Z,-2.46
2019-03-05T02:36:31.033Z,-2.45
2019-03-05T02:37:31.030Z,-2.46
2019-03-05T02:38:31.033Z,-2.46
2019-03-05T02:39:31.036Z,-2.46
2019-03-05T02:40:31.047Z,-2.45
2019-03-05T02:41:31.039Z,-2.42
2019-03-05T02:42:31.043Z,-2.46
2019-03-05T02:43:31.050Z,-2.32
2019-03-05T02:44:31.057Z,-2.34
2019-03-05T02:45:31.744Z,-2.46
2019-03-05T02:46:31.060Z,-2.37
2019-03-05T02:47:31.072Z,-2.34
2019-03-05T02:48:31.065Z,-2.29
2019-03-05T02:49:31.083Z,-2.39
2019-03-05T02:50:31.072Z,-2.37
2019-03-05T02:51:31.077Z,-2.43
2019-03-05T02:52:31.084Z,-2.46
2019-03-05T02:53:31.092Z,-2.60
2019-03-05T02:54:31.092Z,-2.43
2019-03-05T02:55:31.094Z,-2.49
2019-03-05T02:56:31.097Z,-2.52
2019-03-05T02:57:31.104Z,-2.42
2019-03-05T02:58:31.105Z,-2.30
2019-03-05T02:59:31.109Z,-2.40
2019-03-05T03:00:31.114Z,-2.39
2019-03-05T03:01:31.112Z,-2.37
2019-03-05T03:02:31.114Z,-2.40
2019-03-05T03:03:31.123Z,-2.37
2019-03-05T03:04:31.122Z,-2.35
2019-03-05T03:05:31.132Z,-2.35
2019-03-05T03:06:31.137Z,-2.23
2019-03-05T03:07:31.136Z,-2.20
2019-03-05T03:08:31.141Z,-2.24
2019-03-05T03:09:31.145Z,-2.26
2019-03-05T03:10:31.145Z,-2.37
2019-03-05T03:11:31.151Z,-2.24
2019-03-05T03:12:31.157Z,-2.27
2019-03-05T03:13:31.162Z,-2.26
2019-03-05T03:14:31.160Z,-2.18
2019-03-05T03:15:31.167Z,-2.12
2019-03-05T03:16:31.170Z,-2.02
2019-03-05T03:17:31.174Z,-1.92
2019-03-05T03:18:31.178Z,-1.97
2019-03-05T03:19:31.177Z,-2.05
2019-03-05T03:20:31.181Z,-1.92
2019-03-05T03:21:31.184Z,-1.92
2019-03-05T03:22:31.299Z,-2.15
2019-03-05T03:23:31.206Z,-2.10
2019-03-05T03:24:31.204Z,-2.13
2019-03-05T03:25:31.200Z,-2.15
2019-03-05T03:26:31.206Z,-2.27
2019-03-05T03:27:31.206Z,-2.30
2019-03-05T03:28:31.227Z,-2.24
2019-03-05T03:29:31.212Z,-2.23
2019-03-05T03:30:31.238Z,-2.24
2019-03-05T03:31:31.222Z,-2.21
2019-03-05T03:32:31.229Z,-2.20
2019-03-05T03:33:31.253Z,-2.20
2019-03-05T03:34:31.241Z,-2.24
2019-03-05T03:35:31.237Z,-2.34
2019-03-05T03:36:31.249Z,-2.35
2019-03-05T03:37:31.243Z,-2.42
2019-03-05T03:38:31.243Z,-2.34
2019-03-05T03:39:31.266Z,-2.27
2019-03-05T03:40:31.249Z,-2.27
2019-03-05T03:41:31.256Z,-2.30
2019-03-05T03:42:31.260Z,-2.32
2019-03-05T03:43:31.269Z,-2.21
2019-03-05T03:44:31.265Z,-2.30
2019-03-05T03:45:31.270Z,-2.34
2019-03-05T03:46:31.273Z,-2.29
2019-03-05T03:47:31.279Z,-2.45
2019-03-05T03:48:31.284Z,-2.34
2019-03-05T03:49:31.279Z,-2.37
2019-03-05T03:50:31.284Z,-2.35
2019-03-05T03:51:31.294Z,-2.32
2019-03-05T03:52:31.286Z,-2.30
2019-03-05T03:53:31.294Z,-2.40
2019-03-05T03:54:31.297Z,-2.48
2019-03-05T03:55:31.304Z,-2.45
2019-03-05T03:56:31.310Z,-2.50
2019-03-05T03:57:31.306Z,-2.42
2019-03-05T03:58:31.316Z,-2.53
2019-03-05T03:59:31.318Z,-2.45
2019-03-05T04:00:31.322Z,-2.56
2019-03-05T04:01:31.322Z,-2.49
2019-03-05T04:02:31.321Z,-2.55
2019-03-05T04:03:31.332Z,-2.48
2019-03-05T04:04:31.334Z,-2.52
2019-03-05T04:05:31.337Z,-2.55
2019-03-05T04:06:31.339Z,-2.58
2019-03-05T04:07:31.342Z,-2.52
2019-03-05T04:08:31.343Z,-2.67
2019-03-05T04:09:31.352Z,-2.56
2019-03-05T04:10:31.353Z,-2.56
2019-03-05T04:11:31.359Z,-2.58
2019-03-05T04:12:31.356Z,-2.55
2019-03-05T04:13:31.365Z,-2.52
2019-03-05T04:14:31.370Z,-2.56
2019-03-05T04:15:31.372Z,-2.43
2019-03-05T04:16:31.373Z,-2.45
2019-03-05T04:17:31.383Z,-2.46
2019-03-05T04:18:31.383Z,-2.30
2019-03-05T04:19:31.392Z,-2.32
2019-03-05T04:20:31.391Z,-2.40
2019-03-05T04:21:31.392Z,-2.34
2019-03-05T04:22:31.400Z,-2.35
2019-03-05T04:23:31.523Z,-2.30
2019-03-05T04:24:31.402Z,-2.34
2019-03-05T04:25:31.407Z,-2.32
2019-03-05T04:26:31.408Z,-2.42
2019-03-05T04:27:31.412Z,-2.55
2019-03-05T04:28:31.416Z,-2.55
2019-03-05T04:29:31.421Z,-2.50
2019-03-05T04:30:31.424Z,-2.55
2019-03-05T04:31:31.427Z,-2.53
2019-03-05T04:32:31.433Z,-2.48
2019-03-05T04:33:31.437Z,-2.46
2019-03-05T04:34:31.435Z,-2.63
2019-03-05T04:35:31.436Z,-2.53
2019-03-05T04:36:31.440Z,-2.53
2019-03-05T04:37:31.446Z,-2.56
2019-03-05T04:38:31.450Z,-2.52
2019-03-05T04:39:31.449Z,-2.61
2019-03-05T04:40:31.455Z,-2.64
2019-03-05T04:41:31.456Z,-2.61
2019-03-05T04:42:31.463Z,-2.73
2019-03-05T04:43:31.464Z,-2.61
2019-03-05T04:44:31.468Z,-2.73
2019-03-05T04:45:31.471Z,-2.66
2019-03-05T04:46:31.475Z,-2.64
2019-03-05T04:47:31.479Z,-2.66
2019-03-05T04:48:31.485Z,-2.67
2019-03-05T04:49:31.488Z,-2.77
2019-03-05T04:50:31.491Z,-2.73
2019-03-05T04:51:31.495Z,-2.70
2019-03-05T04:52:31.493Z,-2.73
2019-03-05T04:53:31.501Z,-2.68
2019-03-05T04:54:31.504Z,-2.58
2019-03-05T04:55:31.509Z,-2.45
2019-03-05T04:56:31.515Z,-2.46
2019-03-05T04:57:31.516Z,-2.50
2019-03-05T04:58:31.519Z,-2.42
2019-03-05T04:59:31.517Z,-2.32
2019-03-05T05:00:31.522Z,-2.34
2019-03-05T05:01:31.528Z,-2.40
2019-03-05T05:02:31.529Z,-2.32
2019-03-05T05:03:31.531Z,-2.34
2019-03-05T05:04:31.539Z,-2.34
2019-03-05T05:05:31.542Z,-2.24
2019-03-05T05:06:31.542Z,-2.30
2019-03-05T05:07:31.551Z,-2.27
2019-03-05T05:08:31.550Z,-2.15
2019-03-05T05:09:31.557Z,-2.26
2019-03-05T05:10:31.562Z,-2.34
2019-03-05T05:11:31.562Z,-2.40
2019-03-05T05:12:31.564Z,-2.27
2019-03-05T05:13:31.573Z,-2.34
2019-03-05T05:14:31.575Z,-2.37
2019-03-05T05:15:31.574Z,-2.30
2019-03-05T05:16:31.578Z,-2.34
2019-03-05T05:17:31.582Z,-2.40
2019-03-05T05:18:31.584Z,-2.37
2019-03-05T05:19:31.595Z,-2.40
2019-03-05T05:20:31.595Z,-2.32
2019-03-05T05:21:31.596Z,-2.37
2019-03-05T05:22:31.601Z,-2.30
2019-03-05T05:23:31.603Z,-2.37
2019-03-05T05:24:31.613Z,-2.32
2019-03-05T05:25:31.616Z,-2.32
2019-03-05T05:26:31.616Z,-2.32
2019-03-05T05:27:31.619Z,-2.34
2019-03-05T05:28:31.623Z,-2.37
2019-03-05T05:29:31.628Z,-2.37
2019-03-05T05:30:31.637Z,-2.39
2019-03-05T05:31:31.637Z,-2.40
2019-03-05T05:32:31.636Z,-2.30
2019-03-05T05:33:31.643Z,-2.35
2019-03-05T05:34:31.646Z,-2.29
2019-03-05T05:35:31.644Z,-2.37
2019-03-05T05:36:31.657Z,-2.45
2019-03-05T05:37:31.656Z,-2.50
2019-03-05T05:38:31.659Z,-2.46
2019-03-05T05:39:31.662Z,-2.48
2019-03-05T05:40:31.665Z,-2.49
2019-03-05T05:41:31.668Z,-2.45
2019-03-05T05:42:31.672Z,-2.42
2019-03-05T05:43:31.675Z,-2.43
2019-03-05T05:44:31.681Z,-2.49
2019-03-05T05:45:31.685Z,-2.43
2019-03-05T05:46:31.691Z,-2.48
2019-03-05T05:47:31.694Z,-2.46
2019-03-05T05:48:31.695Z,-2.45
2019-03-05T05:49:31.705Z,-2.34
2019-03-05T05:50:31.698Z,-2.34
2019-03-05T05:51:31.700Z,-2.34
2019-03-05T05:52:31.705Z,-2.34
2019-03-05T05:53:31.713Z,-2.35
2019-03-05T05:54:31.711Z,-2.43
2019-03-05T05:55:31.721Z,-2.43
2019-03-05T05:56:31.724Z,-2.49
2019-03-05T05:57:31.731Z,-2.50
2019-03-05T05:58:31.724Z,-2.43
2019-03-05T05:59:31.729Z,-2.45
2019-03-05T06:00:31.733Z,-2.46
2019-03-05T06:01:31.740Z,-2.45
2019-03-05T06:02:31.742Z,-2.45
2019-03-05T06:03:31.743Z,-2.46
2019-03-05T06:04:31.747Z,-2.43
2019-03-05T06:05:31.751Z,-2.35
2019-03-05T06:06:31.760Z,-2.45
2019-03-05T06:07:31.763Z,-2.45
2019-03-05T06:08:31.771Z,-2.45
2019-03-05T06:09:31.764Z,-2.55
2019-03-05T06:10:31.770Z,-2.46
2019-03-05T06:11:31.775Z,-2.42
2019-03-05T06:12:31.773Z,-2.49
2019-03-05T06:13:31.792Z,-2.45
2019-03-05T06:14:31.781Z,-2.48
2019-03-05T06:15:31.789Z,-2.39
2019-03-05T06:16:31.795Z,-2.43
2019-03-05T06:17:31.792Z,-2.32
2019-03-05T06:18:31.794Z,-2.37
2019-03-05T06:19:31.812Z,-2.40
2019-03-05T06:20:31.801Z,-2.32
2019-03-05T06:21:31.809Z,-2.37
2019-03-05T06:22:31.825Z,-2.35
2019-03-05T06:23:31.817Z,-2.34
2019-03-05T06:24:31.816Z,-2.32
2019-03-05T06:25:31.834Z,-2.37
2019-03-05T06:26:31.830Z,-2.24
2019-03-05T06:27:31.828Z,-2.27
2019-03-05T06:28:31.830Z,-2.21
2019-03-05T06:29:31.834Z,-2.34
2019-03-05T06:30:31.841Z,-2.23
2019-03-05T06:31:31.842Z,-2.34
2019-03-05T06:32:31.848Z,-2.39
2019-03-05T06:33:31.851Z,-2.40
2019-03-05T06:34:31.849Z,-2.27
2019-03-05T06:35:31.857Z,-2.37
2019-03-05T06:36:31.861Z,-2.37
2019-03-05T06:37:33.119Z,-2.40
2019-03-05T06:38:31.867Z,-2.34
2019-03-05T06:39:31.871Z,-2.46
2019-03-05T06:40:31.876Z,-2.45
2019-03-05T06:41:31.877Z,-2.43
2019-03-05T06:42:31.881Z,-2.48
2019-03-05T06:43:31.882Z,-2.46
2019-03-05T06:44:31.889Z,-2.43
2019-03-05T06:45:31.894Z,-2.32
2019-03-05T06:46:31.891Z,-2.35
2019-03-05T06:47:31.899Z,-2.39
2019-03-05T06:48:31.907Z,-2.26
2019-03-05T06:49:31.906Z,-2.21
2019-03-05T06:50:31.910Z,-2.27
2019-03-05T06:51:31.916Z,-2.29
2019-03-05T06:52:31.915Z,-2.26
2019-03-05T06:53:31.922Z,-2.23
2019-03-05T06:54:31.930Z,-2.26
2019-03-05T06:55:31.932Z,-2.12
2019-03-05T06:56:31.929Z,-2.08
2019-03-05T06:57:31.933Z,-1.98
2019-03-05T06:58:31.940Z,-1.95
2019-03-05T06:59:31.946Z,-1.95
2019-03-05T07:00:31.944Z,-1.97
2019-03-05T07:01:31.948Z,-1.88
2019-03-05T07:02:31.950Z,-1.84
2019-03-05T07:03:31.958Z,-1.79
2019-03-05T07:04:31.958Z,-1.80
2019-03-05T07:05:31.963Z,-1.77
2019-03-05T07:06:31.968Z,-1.77
2019-03-05T07:07:31.982Z,-1.85
2019-03-05T07:08:31.973Z,-1.90
2019-03-05T07:09:31.981Z,-1.95
2019-03-05T07:10:31.980Z,-2.02
2019-03-05T07:11:31.985Z,-1.91
2019-03-05T07:12:31.988Z,-1.91
2019-03-05T07:13:31.993Z,-1.90
2019-03-05T07:14:32.001Z,-1.97
2019-03-05T07:15:32.001Z,-1.92
2019-03-05T07:16:32.003Z,-1.92
2019-03-05T07:17:32.009Z,-1.97
2019-03-05T07:18:32.015Z,-1.88
2019-03-05T07:19:32.019Z,-1.92
2019-03-05T07:20:32.023Z,-1.94
2019-03-05T07:21:32.030Z,-1.84
2019-03-05T07:22:32.028Z,-1.92
2019-03-05T07:23:32.033Z,-1.95
2019-03-05T07:24:32.034Z,-1.95
2019-03-05T07:25:32.040Z,-1.88
2019-03-05T07:26:32.045Z,-1.95
2019-03-05T07:27:32.052Z,-1.92
2019-03-05T07:28:32.049Z,-2.00
2019-03-05T07:29:32.059Z,-1.80
2019-03-05T07:30:32.058Z,-1.77
2019-03-05T07:31:32.064Z,-1.87
2019-03-05T07:32:32.068Z,-1.80
2019-03-05T07:33:32.070Z,-1.73
2019-03-05T07:34:32.076Z,-1.79
2019-03-05T07:35:32.079Z,-1.76
2019-03-05T07:36:32.084Z,-1.82
2019-03-05T07:37:32.088Z,-1.76
2019-03-05T07:38:32.091Z,-1.84
2019-03-05T07:39:32.092Z,-1.87
2019-03-05T07:40:32.102Z,-1.82
2019-03-05T07:41:32.107Z,-1.92
2019-03-05T07:42:32.107Z,-1.73
2019-03-05T07:43:36.528Z,-1.73
2019-03-05T07:44:32.116Z,-1.70
2019-03-05T07:45:32.122Z,-1.52
2019-03-05T07:46:32.120Z,-1.45
2019-03-05T07:47:32.128Z,-1.33
2019-03-05T07:48:32.131Z,-1.28
2019-03-05T07:49:42.937Z,-1.19
2019-03-05T07:50:32.142Z,-1.17
2019-03-05T07:51:32.147Z,-1.02
2019-03-05T07:52:32.145Z,-1.04
2019-03-05T07:53:32.153Z,-0.86
2019-03-05T07:54:32.157Z,-0.89
2019-03-05T07:55:32.163Z,-0.70
2019-03-05T07:56:32.163Z,-0.78
2019-03-05T07:57:32.233Z,-0.69
2019-03-05T07:58:32.176Z,-0.64
2019-03-05T07:59:32.183Z,-0.73
2019-03-05T08:00:32.182Z,-0.57
2019-03-05T08:01:32.189Z,-0.47
2019-03-05T08:02:32.191Z,-0.47
2019-03-05T08:03:32.194Z,-0.49
2019-03-05T08:04:32.208Z,-0.52
2019-03-05T08:05:32.206Z,-0.51
2019-03-05T08:06:32.216Z,-0.49
2019-03-05T08:07:32.214Z,-0.42
2019-03-05T08:08:32.221Z,-0.47
2019-03-05T08:09:32.228Z,-0.37
2019-03-05T08:10:32.231Z,-0.25
2019-03-05T08:11:32.236Z,-0.31
2019-03-05T08:12:32.239Z,-0.29
2019-03-05T08:13:32.251Z,-0.21
2019-03-05T08:14:32.249Z,-0.42
2019-03-05T08:15:32.256Z,-0.34
2019-03-05T08:16:32.259Z,-0.37
2019-03-05T08:17:32.268Z,-0.31
2019-03-05T08:18:32.271Z,-0.10
2019-03-05T08:19:32.278Z,-0.08
2019-03-05T08:20:32.279Z,0.00
2019-03-05T08:21:32.294Z,0.02
2019-03-05T08:22:32.290Z,0.00
2019-03-05T08:23:32.294Z,0.13
2019-03-05T08:24:32.305Z,0.17
2019-03-05T08:25:32.309Z,0.33
2019-03-05T08:26:32.391Z,0.35
2019-03-05T08:27:32.328Z,0.46
2019-03-05T08:28:32.332Z,0.57
2019-03-05T08:29:32.330Z,0.58
2019-03-05T08:30:32.334Z,0.53
2019-03-05T08:31:32.338Z,0.66
2019-03-05T08:32:32.343Z,0.66
2019-03-05T08:33:32.350Z,0.51
2019-03-05T08:34:32.356Z,0.46
2019-03-05T08:35:32.371Z,0.32
2019-03-05T08:36:32.370Z,0.41
2019-03-05T08:37:32.373Z,0.50
2019-03-05T08:38:32.381Z,0.47
2019-03-05T08:39:32.383Z,0.57
2019-03-05T08:40:32.390Z,0.66
2019-03-05T08:41:32.400Z,0.73
2019-03-05T08:42:32.406Z,0.88
2019-03-05T08:43:32.407Z,0.94
2019-03-05T08:44:32.417Z,1.04
2019-03-05T08:45:32.421Z,1.11
2019-03-05T08:46:32.429Z,1.02
2019-03-05T08:47:32.439Z,1.02
2019-03-05T08:48:32.441Z,1.02
2019-03-05T08:49:32.445Z,0.94
2019-03-05T08:50:32.450Z,1.06
2019-03-05T08:51:32.460Z,1.15
2019-03-05T08:52:32.466Z,1.27
2019-03-05T08:53:32.470Z,1.24
2019-03-05T08:54:32.478Z,1.40
2019-03-05T08:55:32.483Z,1.37
2019-03-05T08:56:32.490Z,1.48
2019-03-05T08:57:32.495Z,1.45
2019-03-05T08:58:32.503Z,1.47
2019-03-05T08:59:32.821Z,1.37
2019-03-05T09:00:32.516Z,1.42
2019-03-05T09:01:32.522Z,1.48
2019-03-05T09:02:32.530Z,1.50
2019-03-05T09:03:32.540Z,1.45
2019-03-05T09:04:32.546Z,1.55
2019-03-05T09:05:32.552Z,1.50
2019-03-05T09:06:32.559Z,1.69
2019-03-05T09:07:32.562Z,1.48
2019-03-05T09:08:32.568Z,1.55
2019-03-05T09:09:32.577Z,1.72
2019-03-05T09:10:32.587Z,1.87
2019-03-05T09:11:32.590Z,1.83
2019-03-05T09:12:32.600Z,1.69
2019-03-05T09:13:33.277Z,1.84
2019-03-05T09:14:34.445Z,1.50
2019-03-05T09:15:32.617Z,1.50
2019-03-05T09:16:32.624Z,1.66
2019-03-05T09:17:32.636Z,1.60
2019-03-05T09:18:32.639Z,1.68
2019-03-05T09:19:32.645Z,2.00
2019-03-05T09:20:32.729Z,2.16
2019-03-05T09:21:32.666Z,2.27
2019-03-05T09:22:32.675Z,2.38
2019-03-05T09:23:32.675Z,2.43
2019-03-05T09:24:32.682Z,2.30
2019-03-05T09:25:32.690Z,2.18
2019-03-05T09:26:32.697Z,2.35
2019-03-05T09:27:32.704Z,2.23
2019-03-05T09:28:32.714Z,1.88
2019-03-05T09:29:32.718Z,1.54
2019-03-05T09:30:32.729Z,1.84
2019-03-05T09:31:32.733Z,2.24
2019-03-05T09:32:32.746Z,2.43
2019-03-05T09:33:32.749Z,2.74
2019-03-05T09:34:32.758Z,3.06
2019-03-05T09:35:32.763Z,3.36
2019-03-05T09:36:32.772Z,3.51
2019-03-05T09:37:32.779Z,3.54
2019-03-05T09:38:32.789Z,3.66
2019-03-05T09:39:32.794Z,3.88
2019-03-05T09:40:32.806Z,4.09
2019-03-05T09:41:32.814Z,4.26
2019-03-05T09:42:39.905Z,4.29
2019-03-05T09:43:32.829Z,4.30
2019-03-05T09:44:32.836Z,4.36
2019-03-05T09:45:32.848Z,4.42
2019-03-05T09:46:32.853Z,4.42
2019-03-05T09:47:32.862Z,4.72
2019-03-05T09:48:32.871Z,4.52
2019-03-05T09:49:32.876Z,4.48
2019-03-05T09:50:32.886Z,4.37
2019-03-05T09:51:32.894Z,4.37
2019-03-05T09:52:32.904Z,4.45
2019-03-05T09:53:32.914Z,4.33
2019-03-05T09:54:32.924Z,4.75
2019-03-05T09:55:32.929Z,5.10
2019-03-05T09:56:32.938Z,5.33
2019-03-05T09:57:32.951Z,5.68
2019-03-05T09:58:32.959Z,5.72
2019-03-05T09:59:32.967Z,5.64
2019-03-05T10:00:32.979Z,4.80
2019-03-05T10:01:32.985Z,4.58
2019-03-05T10:02:32.993Z,4.80
2019-03-05T10:03:33.008Z,4.84
2019-03-05T10:04:33.019Z,5.12
2019-03-05T10:05:33.030Z,5.42
2019-03-05T10:06:33.031Z,5.81
2019-03-05T10:07:33.044Z,5.74
2019-03-05T10:08:33.102Z,5.39
2019-03-05T10:09:33.065Z,5.54
2019-03-05T10:10:33.075Z,5.83
2019-03-05T10:11:33.083Z,6.03
2019-03-05T10:12:33.091Z,5.45
2019-03-05T10:13:33.102Z,4.73
2019-03-05T10:14:33.110Z,4.58
2019-03-05T10:15:33.120Z,4.70
2019-03-05T10:16:33.141Z,4.75
2019-03-05T10:17:37.801Z,4.89
2019-03-05T10:18:33.153Z,5.10
2019-03-05T10:19:33.164Z,5.27
2019-03-05T10:20:33.176Z,5.54
2019-03-05T10:21:33.184Z,5.93
2019-03-05T10:22:33.190Z,6.21
2019-03-05T10:23:33.204Z,6.64
2019-03-05T10:24:33.211Z,6.98
2019-03-05T10:25:33.225Z,7.31
2019-03-05T10:26:33.235Z,7.30
2019-03-05T10:27:33.248Z,7.30
2019-03-05T10:28:33.253Z,7.42
2019-03-05T10:29:33.269Z,7.53
2019-03-05T10:30:33.288Z,7.82
2019-03-05T10:31:33.414Z,7.55
2019-03-05T10:32:33.296Z,7.58
2019-03-05T10:33:33.314Z,7.82
2019-03-05T10:34:33.316Z,8.11
2019-03-05T10:35:33.335Z,8.16
2019-03-05T10:36:33.342Z,7.98
2019-03-05T10:37:33.351Z,7.75
2019-03-05T10:38:33.360Z,7.72
2019-03-05T10:39:33.374Z,7.80
2019-03-05T10:40:33.389Z,8.11
2019-03-05T10:41:33.401Z,8.22
2019-03-05T10:42:33.416Z,8.29
2019-03-05T10:43:33.422Z,7.50
2019-03-05T10:44:33.432Z,7.15
2019-03-05T10:45:33.446Z,7.39
2019-03-05T10:46:33.458Z,7.49
2019-03-05T10:47:33.472Z,6.70
2019-03-05T10:48:33.481Z,6.98
2019-03-05T10:49:33.494Z,7.45
2019-03-05T10:50:33.509Z,7.49
2019-03-05T10:51:33.515Z,7.74
2019-03-05T10:52:33.526Z,7.85
2019-03-05T10:53:33.540Z,8.36
2019-03-05T10:54:33.550Z,8.19
2019-03-05T10:55:33.559Z,8.00
2019-03-05T10:56:33.572Z,6.69
2019-03-05T10:57:33.584Z,5.65
2019-03-05T10:58:34.496Z,5.12
2019-03-05T10:59:33.608Z,4.69
2019-03-05T11:00:33.620Z,4.44
2019-03-05T11:01:33.631Z,4.23
2019-03-05T11:02:33.707Z,4.59
2019-03-05T11:03:33.661Z,5.00
2019-03-05T11:04:33.668Z,4.52
2019-03-05T11:05:33.682Z,5.10
2019-03-05T11:06:33.695Z,5.53
2019-03-05T11:07:33.710Z,6.15
2019-03-05T11:08:33.714Z,6.58
2019-03-05T11:09:33.725Z,7.16
2019-03-05T11:10:33.736Z,7.55
2019-03-05T11:11:33.748Z,8.04
2019-03-05T11:12:33.764Z,8.45
2019-03-05T11:13:33.775Z,6.97
2019-03-05T11:14:33.790Z,6.58
2019-03-05T11:15:33.803Z,6.09
2019-03-05T11:16:33.811Z,6.64
2019-03-05T11:17:33.822Z,6.98
2019-03-05T11:18:33.836Z,7.27
2019-03-05T11:19:33.844Z,7.50
2019-03-05T11:20:33.863Z,7.57
2019-03-05T11:21:33.867Z,7.58
2019-03-05T11:22:33.882Z,6.64
2019-03-05T11:23:33.890Z,6.37
2019-03-05T11:24:33.902Z,6.30
2019-03-05T11:25:33.914Z,6.49
2019-03-05T11:26:33.929Z,6.76
2019-03-05T11:27:33.938Z,6.36
2019-03-05T11:28:33.956Z,6.28
2019-03-05T11:29:33.971Z,5.33
2019-03-05T11:30:36.405Z,5.97
2019-03-05T11:31:33.986Z,6.80
2019-03-05T11:32:34.004Z,7.12
2019-03-05T11:33:34.011Z,6.98
2019-03-05T11:34:34.025Z,6.85
2019-03-05T11:35:34.034Z,5.61
2019-03-05T11:36:34.050Z,6.00
2019-03-05T11:37:34.061Z,5.93
2019-03-05T11:38:34.090Z,6.15
2019-03-05T11:39:34.086Z,6.31
2019-03-05T11:40:34.096Z,6.66
2019-03-05T11:41:34.116Z,6.21
2019-03-05T11:42:34.123Z,6.03
2019-03-05T11:43:34.137Z,5.82
2019-03-05T11:44:34.144Z,6.18
2019-03-05T11:45:34.160Z,6.40
2019-03-05T11:46:34.176Z,6.71
2019-03-05T11:47:34.183Z,6.91
2019-03-05T11:48:34.198Z,6.37
2019-03-05T11:49:34.206Z,5.53
2019-03-05T11:50:34.221Z,5.63
2019-03-05T11:51:34.235Z,5.38
2019-03-05T11:52:34.244Z,5.40
2019-03-05T11:53:34.256Z,4.99
2019-03-05T11:54:34.269Z,5.06
2019-03-05T11:55:34.280Z,5.61
2019-03-05T11:56:34.293Z,5.79
2019-03-05T11:57:34.305Z,6.34
2019-03-05T11:58:34.312Z,6.69
2019-03-05T11:59:34.329Z,6.36
2019-03-05T12:00:34.335Z,6.62
2019-03-05T12:01:34.356Z,6.71
2019-03-05T12:02:34.364Z,5.17
2019-03-05T12:03:34.376Z,5.40
2019-03-05T12:04:34.387Z,6.01
2019-03-05T12:05:34.395Z,5.94
2019-03-05T12:06:34.408Z,6.30
2019-03-05T12:07:34.427Z,6.48
2019-03-05T12:08:34.434Z,6.69
2019-03-05T12:09:34.445Z,6.84
2019-03-05T12:10:34.457Z,6.80
2019-03-05T12:11:34.466Z,6.76
2019-03-05T12:12:34.478Z,7.27
2019-03-05T12:13:34.494Z,7.60
2019-03-05T12:14:34.507Z,7.89
2019-03-05T12:15:34.516Z,7.57
2019-03-05T12:16:34.527Z,7.27
2019-03-05T12:17:34.537Z,7.15
2019-03-05T12:18:34.552Z,7.45
2019-03-05T12:19:34.564Z,7.23
2019-03-05T12:20:34.573Z,7.46
2019-03-05T12:21:34.586Z,7.74
2019-03-05T12:22:34.604Z,6.49
2019-03-05T12:23:34.612Z,6.56
2019-03-05T12:24:34.624Z,7.02
2019-03-05T12:25:36.196Z,7.35
2019-03-05T12:26:34.647Z,7.77
2019-03-05T12:27:35.905Z,8.20
2019-03-05T12:28:34.681Z,7.68
2019-03-05T12:29:34.688Z,6.94
2019-03-05T12:30:34.700Z,7.28
2019-03-05T12:31:34.715Z,6.94
2019-03-05T12:32:34.724Z,6.77
2019-03-05T12:33:34.738Z,7.30
2019-03-05T12:34:34.746Z,7.60
2019-03-05T12:35:35.606Z,7.69
2019-03-05T12:36:34.772Z,8.20
2019-03-05T12:37:34.788Z,8.40
2019-03-05T12:38:34.800Z,8.28
2019-03-05T12:39:34.815Z,7.79
2019-03-05T12:40:34.828Z,7.82
2019-03-05T12:41:34.836Z,7.50
2019-03-05T12:42:34.849Z,7.60
2019-03-05T12:43:34.866Z,7.39
2019-03-05T12:44:34.879Z,7.25
2019-03-05T12:45:34.892Z,7.23
2019-03-05T12:46:34.902Z,7.71
2019-03-05T12:47:34.917Z,7.83
2019-03-05T12:48:40.060Z,7.80
2019-03-05T12:49:34.943Z,7.23
2019-03-05T12:50:34.957Z,6.89
2019-03-05T12:51:34.963Z,6.95
2019-03-05T12:52:34.978Z,6.56
2019-03-05T12:53:34.995Z,7.35
2019-03-05T12:54:35.003Z,7.64
2019-03-05T12:55:35.016Z,8.26
2019-03-05T12:56:35.030Z,8.29
2019-03-05T12:57:35.044Z,7.69
2019-03-05T12:58:35.053Z,7.17
2019-03-05T12:59:35.068Z,6.48
2019-03-05T13:00:35.085Z,6.94
2019-03-05T13:01:35.123Z,6.99